Time;durP1;ratioP1;P1;durP2;ratioP2;P2;SDS_P1;SDS_P2;PMS_P1;PMS_P2;Temp;Humidity;BMP_temperature;BMP_pressure;BME280_temperature;BME280_humidity;BME280_pressure;Samples;Min_cycle;Max_cycle;Signal;HPM_P1;HPM_P2
2022/04/23 00:00:19;;;;;;;4.83;2.67;;;;;;;14.57;59.71;93775.91;5032717;28;20230;-83
2022/04/23 00:02:46;;;;;;;10.13;2.97;;;;;;;14.69;59.68;93792.06;5027729;28;20195;-81
2022/04/23 00:05:14;;;;;;;9.10;3.23;;;;;;;14.57;59.72;93776.66;5023443;28;20218;-81
2022/04/23 00:07:41;;;;;;;7.47;3.17;;;;;;;14.60;60.34;93785.84;5012790;28;20199;-82
2022/04/23 00:10:09;;;;;;;10.23;3.03;;;;;;;14.62;60.42;93786.34;5018441;28;20202;-82
2022/04/23 00:12:36;;;;;;;5.97;2.47;;;;;;;14.34;61.40;93776.44;5013668;28;20200;-82
2022/04/23 00:15:06;;;;;;;6.80;2.90;;;;;;;14.24;62.15;93790.25;5012842;28;20199;-82
2022/04/23 00:17:33;;;;;;;5.57;2.80;;;;;;;14.25;62.43;93783.22;5015957;28;20222;-82
2022/04/23 00:20:00;;;;;;;5.97;3.03;;;;;;;14.18;62.77;93778.22;5032706;28;20728;-82
2022/04/23 00:22:29;;;;;;;8.23;3.00;;;;;;;14.12;62.30;93776.66;5032540;28;20289;-82
2022/04/23 00:24:57;;;;;;;10.63;3.10;;;;;;;14.13;62.36;93775.63;5032184;28;20234;-78
2022/04/23 00:27:24;;;;;;;8.20;3.40;;;;;;;14.04;62.46;93764.91;5023658;28;20276;-79
2022/04/23 00:29:51;;;;;;;6.67;3.10;;;;;;;13.99;62.45;93767.53;5023054;28;20190;-78
2022/04/23 00:32:18;;;;;;;6.80;3.03;;;;;;;13.99;62.87;93762.31;5018884;28;20195;-79
2022/04/23 00:34:44;;;;;;;6.53;3.23;;;;;;;14.04;62.13;93771.97;5022011;28;20192;-78
2022/04/23 00:37:11;;;;;;;5.93;2.97;;;;;;;14.03;62.91;93763.34;5020590;28;20199;-77
2022/04/23 00:39:39;;;;;;;5.73;3.63;;;;;;;13.99;62.41;93766.75;5022334;28;20195;-78
2022/04/23 00:42:09;;;;;;;10.03;3.10;;;;;;;14.08;62.30;93773.78;5025600;28;20195;-80
2022/04/23 00:44:37;;;;;;;7.20;3.03;;;;;;;14.15;62.26;93770.91;5017722;28;20253;-80
2022/04/23 00:47:08;;;;;;;5.83;3.10;;;;;;;14.20;62.53;93769.09;5025524;28;20697;-81
2022/04/23 00:49:35;;;;;;;7.63;3.20;;;;;;;14.20;62.45;93774.31;5018996;28;20297;-80
2022/04/23 00:52:03;;;;;;;11.10;3.30;;;;;;;14.07;63.43;93766.22;5032116;28;20195;-80
2022/04/23 00:54:30;;;;;;;7.37;3.60;;;;;;;14.11;62.61;93772.50;5012518;28;20195;-81
2022/04/23 00:56:59;;;;;;;6.10;2.80;;;;;;;14.04;62.06;93777.19;5027383;28;20260;-81
2022/04/23 00:59:28;;;;;;;7.07;3.00;;;;;;;14.00;62.46;93778.75;5031805;28;20285;-80
2022/04/23 01:01:55;;;;;;;7.57;2.93;;;;;;;14.09;62.34;93785.81;5023599;28;20199;-80
2022/04/23 01:04:22;;;;;;;8.60;3.10;;;;;;;14.09;63.08;93785.81;5029180;28;20202;-81
2022/04/23 01:06:52;;;;;;;6.87;3.30;;;;;;;13.99;63.34;93788.44;5021093;28;20269;-81
2022/04/23 01:09:22;;;;;;;8.77;3.00;;;;;;;14.16;62.53;93790.78;5022086;28;20613;-82
2022/04/23 01:12:11;;;;;;;8.60;2.93;;;;;;;14.20;62.52;93791.81;5028855;28;20580;-81
2022/04/23 01:14:59;;;;;;;7.90;3.30;;;;;;;14.19;62.53;93779.81;5019032;28;20199;-82
2022/04/23 01:17:26;;;;;;;9.07;3.27;;;;;;;14.36;61.84;93782.19;5031911;28;20175;-82
2022/04/23 01:20:05;;;;;;;10.53;3.20;;;;;;;14.40;62.14;93778.78;5031851;28;20265;-82
2022/04/23 01:22:33;;;;;;;5.27;2.77;;;;;;;14.47;61.46;93776.69;5031800;28;20187;-81
2022/04/23 01:25:00;;;;;;;10.13;2.50;;;;;;;14.55;61.23;93778.78;5031503;28;20717;-82
2022/04/23 01:27:29;;;;;;;7.40;2.70;;;;;;;14.51;61.56;93751.59;5031488;28;20209;-82
2022/04/23 01:29:56;;;;;;;7.87;3.00;;;;;;;14.59;61.50;93752.88;5031853;28;20635;-86
2022/04/23 01:32:23;;;;;;;6.50;2.77;;;;;;;14.64;60.99;93760.72;5031580;28;20203;-85
2022/04/23 01:34:50;;;;;;;5.30;2.80;;;;;;;14.56;61.00;93754.19;5031522;28;20230;-85
2022/04/23 01:37:18;;;;;;;12.20;3.17;;;;;;;14.71;61.33;93769.06;5019608;28;20207;-85
2022/04/23 01:39:46;;;;;;;8.60;3.07;;;;;;;14.74;61.33;93763.31;5012098;28;20203;-80
2022/04/23 01:42:17;;;;;;;8.07;2.90;;;;;;;14.65;61.87;93763.06;5011356;28;20184;-81
2022/04/23 01:44:44;;;;;;;9.70;3.50;;;;;;;14.66;62.70;93780.31;5011427;28;20180;-81
2022/04/23 01:47:11;;;;;;;7.83;3.30;;;;;;;14.56;62.92;93782.16;5011261;28;20227;-82
2022/04/23 01:49:38;;;;;;;8.70;3.10;;;;;;;14.44;63.01;93786.88;5011418;28;20690;-81
2022/04/23 01:52:05;;;;;;;5.70;2.97;;;;;;;14.27;64.46;93781.09;5011587;28;20203;-81
2022/04/23 01:54:42;;;;;;;6.33;2.90;;;;;;;14.10;64.29;93787.38;5028837;28;20199;-82
2022/04/23 01:57:09;;;;;;;6.30;2.90;;;;;;;14.09;64.38;93787.63;5017268;28;20195;-82
2022/04/23 01:59:35;;;;;;;11.93;3.27;;;;;;;13.89;65.29;93785.00;5011432;28;20200;-81
2022/04/23 02:02:02;;;;;;;12.13;3.53;;;;;;;13.72;66.25;93781.84;5018574;28;20194;-82
2022/04/23 02:04:29;;;;;;;8.83;3.70;;;;;;;13.73;66.32;93786.81;5031480;28;20187;-85
2022/04/23 02:06:56;;;;;;;6.80;3.43;;;;;;;13.76;66.25;93795.97;5030961;28;20693;-85
2022/04/23 02:09:23;;;;;;;5.93;3.43;;;;;;;13.68;66.56;93784.19;5025916;28;20210;-84
2022/04/23 02:11:51;;;;;;;9.07;3.50;;;;;;;13.64;66.57;93781.31;5021299;28;20195;-84
2022/04/23 02:14:18;;;;;;;8.13;3.33;;;;;;;13.47;67.00;93775.53;5022156;28;20225;-84
2022/04/23 02:16:45;;;;;;;5.93;3.33;;;;;;;13.51;67.16;93781.78;5031320;28;20263;-84
2022/04/23 02:19:13;;;;;;;8.03;3.47;;;;;;;13.54;67.49;93781.28;5031154;28;20270;-85
2022/04/23 02:21:40;;;;;;;6.27;3.57;;;;;;;13.50;67.30;93782.84;5025761;28;20182;-85
2022/04/23 02:24:08;;;;;;;8.50;3.30;;;;;;;13.56;67.20;93778.44;5030864;28;20237;-83
2022/04/23 02:26:35;;;;;;;5.53;3.57;;;;;;;13.52;68.04;93779.97;5013217;28;20720;-83
2022/04/23 02:29:11;;;;;;;8.33;3.70;;;;;;;13.44;67.61;93788.31;5010873;28;20646;-83
2022/04/23 02:31:38;;;;;;;9.33;3.40;;;;;;;13.33;68.62;93787.47;5025934;28;20198;-83
2022/04/23 02:34:05;;;;;;;7.67;3.20;;;;;;;13.30;68.53;93789.81;5030874;28;20199;-82
2022/04/23 02:36:32;;;;;;;7.37;3.50;;;;;;;13.23;68.88;93787.44;5030849;28;20633;-83
2022/04/23 02:38:59;;;;;;;6.07;3.43;;;;;;;13.19;69.31;93790.84;5030402;28;20203;-82
2022/04/23 02:41:26;;;;;;;10.33;3.40;;;;;;;13.13;69.25;93795.22;5030752;28;20199;-83
2022/04/23 02:44:00;;;;;;;7.10;3.50;;;;;;;13.04;69.29;93775.88;5030826;28;20187;-83
2022/04/23 02:46:28;;;;;;;6.73;3.40;;;;;;;13.13;68.79;93791.84;5030657;28;20738;-83
2022/04/23 02:52:01;;;;;;;9.27;3.67;;;;;;;13.14;69.11;93785.56;5015780;28;20226;-83
2022/04/23 02:54:42;;;;;;;6.03;3.63;;;;;;;13.23;69.24;93797.09;5010932;28;20203;-85
2022/04/23 02:57:11;;;;;;;7.33;3.10;;;;;;;13.33;68.01;93791.94;5017289;28;20191;-83
2022/04/23 02:59:42;;;;;;;8.23;3.73;;;;;;;13.42;67.91;93795.63;5026181;28;20700;-84
2022/04/23 03:02:29;;;;;;;6.40;3.70;;;;;;;13.48;68.05;93795.34;5026103;28;20194;-84
2022/04/23 03:04:55;;;;;;;7.07;3.47;;;;;;;13.48;68.24;93797.19;5033483;28;20241;-85
2022/04/23 03:07:42;;;;;;;7.57;3.87;;;;;;;13.56;68.64;93794.84;5019406;28;20218;-83
2022/04/23 03:10:11;;;;;;;8.43;3.97;;;;;;;13.56;68.55;93805.28;4934443;29;20202;-82
2022/04/23 03:12:38;;;;;;;9.47;3.90;;;;;;;13.56;69.57;93794.09;5015443;28;20564;-85
2022/04/23 03:15:07;;;;;;;12.20;3.80;;;;;;;13.51;69.59;93799.28;5027216;28;20190;-86
2022/04/23 03:17:36;;;;;;;8.27;3.80;;;;;;;13.54;70.27;93790.94;5014987;28;20211;-88
2022/04/23 03:20:04;;;;;;;8.20;4.00;;;;;;;13.50;70.36;93802.94;5025096;28;20261;-86
2022/04/23 03:22:30;;;;;;;8.13;3.70;;;;;;;13.38;70.87;93805.78;5023222;28;20283;-87
2022/04/23 03:24:57;;;;;;;10.70;3.90;;;;;;;13.35;71.07;93800.28;5021805;28;20235;-85
2022/04/23 03:27:24;;;;;;;9.40;3.70;;;;;;;13.35;71.29;93805.50;5022617;28;20693;-87
2022/04/23 03:29:51;;;;;;;5.40;3.80;;;;;;;13.23;71.51;93808.31;5017362;28;20587;-87
2022/04/23 03:32:18;;;;;;;6.47;3.60;;;;;;;13.10;71.28;93798.38;5011134;28;20210;-87
2022/04/23 03:34:46;;;;;;;8.23;3.80;;;;;;;13.06;71.69;93792.84;5014749;28;20659;-86
2022/04/23 03:37:14;;;;;;;6.30;3.90;;;;;;;13.16;71.56;93802.53;5014175;28;20203;-86
2022/04/23 03:39:41;;;;;;;7.10;3.97;;;;;;;13.18;72.16;93816.13;5016443;28;20199;-85
2022/04/23 03:42:08;;;;;;;8.33;4.07;;;;;;;13.02;72.33;93817.84;5022325;28;20199;-85
2022/04/23 03:44:35;;;;;;;6.23;3.60;;;;;;;12.98;72.73;93829.03;5014683;28;20202;-84
2022/04/23 03:47:02;;;;;;;9.17;3.83;;;;;;;12.96;73.51;93838.91;5014136;28;20281;-83
2022/04/23 03:49:30;;;;;;;7.30;3.80;;;;;;;12.88;73.24;93836.78;5013867;28;20202;-84
2022/04/23 03:51:59;;;;;;;9.03;4.60;;;;;;;12.87;72.75;93840.47;5031540;28;20222;-85
2022/04/23 03:54:27;;;;;;;9.13;4.07;;;;;;;12.86;72.82;93838.88;5034788;28;20187;-84
2022/04/23 03:56:53;;;;;;;9.47;4.13;;;;;;;12.85;72.81;93835.47;5016742;28;20195;-84
2022/04/23 03:59:23;;;;;;;10.80;4.30;;;;;;;12.70;73.18;93843.19;5022225;28;20254;-83
2022/04/23 04:01:50;;;;;;;11.37;4.40;;;;;;;12.64;73.79;93843.44;5035710;28;20285;-84
2022/04/23 04:04:16;;;;;;;7.93;3.87;;;;;;;12.65;73.90;93848.38;5034269;28;20195;-84
2022/04/23 04:06:43;;;;;;;10.70;4.10;;;;;;;12.71;74.02;93841.38;5033587;28;20836;-84
2022/04/23 04:09:12;;;;;;;7.77;3.90;;;;;;;12.72;73.48;93840.34;5033579;28;20221;-84
2022/04/23 04:14:23;;;;;;;14.03;4.30;;;;;;;12.75;74.14;93843.25;5033852;28;20214;-86
2022/04/23 04:16:51;;;;;;;6.77;4.27;;;;;;;12.76;73.23;93844.00;5033928;28;20191;-87
2022/04/23 04:19:19;;;;;;;10.60;4.23;;;;;;;12.83;73.32;93847.19;5033838;28;20199;-87
2022/04/23 04:21:48;;;;;;;9.27;4.47;;;;;;;12.86;73.55;93849.31;5033616;28;20210;-86
2022/04/23 04:24:17;;;;;;;9.43;4.53;;;;;;;12.88;73.73;93848.00;5033049;28;20267;-85
2022/04/23 04:26:46;;;;;;;9.93;4.73;;;;;;;12.94;73.50;93854.03;5032945;28;20317;-84
2022/04/23 04:29:14;;;;;;;10.23;4.80;;;;;;;13.02;74.56;93858.78;5032622;28;21025;-84
2022/04/23 04:31:51;;;;;;;12.70;4.63;;;;;;;13.04;74.25;93854.13;5032930;28;20198;-84
2022/04/23 04:34:20;;;;;;;11.80;5.10;;;;;;;13.10;75.13;93854.97;5024832;28;20200;-85
2022/04/23 04:37:02;;;;;;;15.37;4.97;;;;;;;13.02;76.30;93845.75;5024530;28;20176;-85
2022/04/23 04:40:12;;;;;;;8.87;4.50;;;;;;;13.08;77.50;93863.81;5020927;28;20190;-85
2022/04/23 04:42:40;;;;;;;11.20;4.90;;;;;;;13.10;77.05;93873.22;5019637;28;20180;-80
2022/04/23 04:45:08;;;;;;;10.07;4.60;;;;;;;13.10;77.67;93873.22;5021194;28;20195;-83
2022/04/23 04:47:35;;;;;;;13.43;5.20;;;;;;;13.04;78.32;93865.31;5020763;28;20212;-84
2022/04/23 04:50:02;;;;;;;12.83;5.27;;;;;;;13.00;78.12;93876.50;5025974;28;20194;-83
2022/04/23 04:52:29;;;;;;;13.50;5.23;;;;;;;13.02;79.90;93879.66;5018093;28;20222;-82
2022/04/23 04:54:56;;;;;;;10.27;5.13;;;;;;;13.12;80.45;93882.38;5025477;28;20197;-85
2022/04/23 04:57:22;;;;;;;12.63;5.37;;;;;;;13.08;79.92;93876.84;5013113;28;20195;-84
2022/04/23 04:59:50;;;;;;;13.63;5.80;;;;;;;13.14;79.34;93888.09;5020657;28;20659;-84
2022/04/23 05:02:17;;;;;;;18.63;5.43;;;;;;;13.18;79.26;93894.41;5032127;28;20696;-84
2022/04/23 05:04:44;;;;;;;17.57;6.77;;;;;;;13.17;77.89;93900.66;5029884;28;20567;-84
2022/04/23 05:07:11;;;;;;;21.30;7.63;;;;;;;13.12;77.86;93912.88;5019934;28;20208;-84
2022/04/23 05:09:38;;;;;;;23.03;11.73;;;;;;;13.11;78.07;93913.91;5024938;28;20193;-84
2022/04/23 05:12:05;;;;;;;17.73;10.40;;;;;;;13.05;77.53;93926.09;5023434;28;20574;-85
2022/04/23 05:14:32;;;;;;;18.30;8.80;;;;;;;13.00;77.92;93920.84;5031211;28;20186;-84
2022/04/23 05:17:00;;;;;;;18.73;6.57;;;;;;;13.00;78.10;93931.28;5030643;28;20207;-85
2022/04/23 05:19:27;;;;;;;12.40;5.60;;;;;;;13.01;77.90;93932.88;5029126;28;20195;-85
2022/04/23 05:21:54;;;;;;;10.00;5.00;;;;;;;12.95;78.02;93933.88;5017999;28;20210;-86
2022/04/23 05:24:24;;;;;;;12.87;5.33;;;;;;;12.74;78.13;93924.31;5021761;28;20223;-85
2022/04/23 05:26:54;;;;;;;13.13;4.90;;;;;;;12.82;78.70;93936.88;5025482;28;20257;-85
2022/04/23 05:29:21;;;;;;;14.50;5.40;;;;;;;12.89;79.05;93942.69;5014545;28;20195;-85
2022/04/23 05:31:48;;;;;;;11.13;5.50;;;;;;;12.94;80.76;93940.09;5025578;28;20195;-81
2022/04/23 05:34:17;;;;;;;9.47;5.13;;;;;;;12.97;81.99;93945.63;5022802;28;20195;-81
2022/04/23 05:36:44;;;;;;;11.07;4.87;;;;;;;12.92;83.42;93932.53;5028534;28;20183;-82
2022/04/23 05:39:11;;;;;;;9.23;5.67;;;;;;;13.10;84.12;93944.44;5026838;28;20204;-82
2022/04/23 05:41:38;;;;;;;13.83;5.90;;;;;;;13.23;84.33;93951.81;5020943;28;20187;-81
2022/04/23 05:44:06;;;;;;;11.33;5.77;;;;;;;13.43;84.39;93938.91;5028610;28;20213;-82
2022/04/23 05:46:33;;;;;;;15.07;5.70;;;;;;;13.52;84.71;93934.00;5011090;28;20183;-81
2022/04/23 05:49:00;;;;;;;7.47;4.73;;;;;;;13.60;85.16;93934.28;5011619;28;21008;-85
2022/04/23 05:51:28;;;;;;;14.47;4.50;;;;;;;13.59;86.40;93924.88;5014033;28;20199;-86
2022/04/23 05:53:55;;;;;;;8.13;4.13;;;;;;;13.62;86.57;93923.59;5018349;28;20219;-84
2022/04/23 05:56:22;;;;;;;8.73;4.03;;;;;;;13.80;86.28;93930.97;5021027;28;20194;-85
2022/04/23 05:58:49;;;;;;;8.93;4.13;;;;;;;13.93;86.33;93929.72;5027153;28;20839;-86
2022/04/23 06:01:16;;;;;;;9.87;4.40;;;;;;;14.07;84.96;93922.97;5017061;28;20199;-86
2022/04/23 06:03:44;;;;;;;11.50;4.00;;;;;;;14.24;84.79;93931.38;5011400;28;20563;-85
2022/04/23 06:06:32;;;;;;;9.80;4.30;;;;;;;14.32;83.08;93930.91;5011735;28;20210;-82
2022/04/23 06:08:59;;;;;;;6.50;4.00;;;;;;;14.39;81.86;93938.50;5019250;28;20200;-74
2022/04/23 06:11:26;;;;;;;6.57;4.10;;;;;;;14.52;81.57;93927.53;5019388;28;20199;-73
2022/04/23 06:13:53;;;;;;;5.97;4.20;;;;;;;14.62;81.13;93933.59;5021045;28;20194;-74
2022/04/23 06:16:20;;;;;;;14.57;10.87;;;;;;;14.73;80.35;93948.25;5021147;28;20203;-73
2022/04/23 06:18:46;;;;;;;7.50;5.77;;;;;;;14.82;80.46;93958.19;5018609;28;20245;-73
2022/04/23 06:21:13;;;;;;;7.73;4.33;;;;;;;14.91;79.75;93954.78;5020267;28;20194;-72
2022/04/23 06:23:41;;;;;;;10.40;4.37;;;;;;;14.88;80.10;93962.38;5018946;28;20219;-73
2022/04/23 06:26:08;;;;;;;8.40;4.27;;;;;;;14.93;80.24;93955.31;5020793;28;20246;-73
2022/04/23 06:28:35;;;;;;;7.27;4.20;;;;;;;14.96;79.79;93956.63;5018767;28;20219;-73
2022/04/23 06:31:02;;;;;;;10.60;4.53;;;;;;;15.04;79.80;93950.84;5023651;28;20198;-74
2022/04/23 06:33:28;;;;;;;12.40;4.23;;;;;;;15.02;79.64;93945.09;5024236;28;20250;-72
2022/04/23 06:35:55;;;;;;;6.20;3.50;;;;;;;15.16;79.29;93954.00;5021978;28;20544;-74
2022/04/23 06:38:22;;;;;;;8.07;4.00;;;;;;;15.15;80.04;93955.81;5023464;28;20195;-72
2022/04/23 06:40:51;;;;;;;8.50;3.80;;;;;;;15.19;80.13;93959.50;5024633;28;20258;-72
2022/04/23 06:43:18;;;;;;;9.03;4.17;;;;;;;15.26;79.72;93961.84;5022800;28;20247;-73
2022/04/23 06:45:45;;;;;;;9.63;4.40;;;;;;;15.26;79.97;93957.41;5023515;28;20206;-73
2022/04/23 06:48:12;;;;;;;6.33;3.90;;;;;;;15.29;79.56;93948.22;5024009;28;20233;-73
2022/04/23 06:50:38;;;;;;;6.03;3.63;;;;;;;15.30;78.95;93949.78;5022878;28;20214;-73
2022/04/23 06:53:06;;;;;;;8.90;3.93;;;;;;;15.27;79.37;93960.78;5022571;28;20199;-73
2022/04/23 06:55:35;;;;;;;9.93;4.30;;;;;;;15.25;79.56;93963.69;5026024;28;20243;-74
2022/04/23 06:58:03;;;;;;;10.60;3.63;;;;;;;15.32;78.84;93968.66;5020898;28;20190;-73
2022/04/23 07:00:30;;;;;;;7.27;3.80;;;;;;;15.27;79.25;93960.78;5022527;28;20203;-80
2022/04/23 07:02:57;;;;;;;6.20;3.90;;;;;;;15.27;79.12;93955.53;5021928;28;20188;-84
2022/04/23 07:05:24;;;;;;;5.33;3.63;;;;;;;15.25;79.64;93949.81;5019435;28;20247;-80
2022/04/23 07:07:58;;;;;;;6.57;3.63;;;;;;;15.35;78.54;93963.66;5024918;28;20211;-80
2022/04/23 07:10:26;;;;;;;6.87;3.37;;;;;;;15.39;79.21;93973.59;5031182;28;20193;-83
2022/04/23 07:12:53;;;;;;;7.97;3.83;;;;;;;15.39;79.51;93974.38;5033775;28;20197;-83
2022/04/23 07:15:22;;;;;;;6.07;3.70;;;;;;;15.46;79.99;93976.75;5027586;28;20195;-82
2022/04/23 07:17:50;;;;;;;6.23;4.13;;;;;;;15.42;80.14;93980.94;5021724;28;21659;-78
2022/04/23 07:20:17;;;;;;;11.70;3.60;;;;;;;15.41;80.52;93976.75;5028310;28;20195;-76
2022/04/23 07:24:03;;;;;;;13.57;3.73;;;;;;;15.49;80.01;93984.09;5025320;28;20253;-76
2022/04/23 07:25:34;;;;;;;10.73;3.73;;;;;;;15.53;79.04;93996.41;5025092;28;20190;-74
2022/04/23 07:28:04;;;;;;;12.53;3.60;;;;;;;15.64;77.73;93992.72;5022371;28;20246;-75
2022/04/23 07:30:34;;;;;;;10.47;3.60;;;;;;;15.63;77.94;93999.00;5022301;28;20195;-78
2022/04/23 07:33:01;;;;;;;9.23;3.93;;;;;;;15.73;78.23;94003.44;4976814;28;20656;-75
2022/04/23 07:38:13;;;;;;;9.10;3.70;;;;;;;15.85;76.75;94009.97;5026375;28;20194;-78
2022/04/23 07:40:40;;;;;;;6.83;3.70;;;;;;;15.89;75.85;94018.09;5025200;28;20203;-76
2022/04/23 07:43:10;;;;;;;8.57;3.20;;;;;;;15.93;74.07;94019.09;5022156;28;20237;-76
2022/04/23 07:45:38;;;;;;;9.00;3.87;;;;;;;15.98;74.07;94011.25;5022755;28;20203;-76
2022/04/23 07:48:06;;;;;;;4.73;3.97;;;;;;;16.01;74.67;94017.78;5022335;28;20222;-74
2022/04/23 07:51:02;;;;;;;8.70;4.10;;;;;;;15.85;77.06;94023.06;5019934;28;20283;-75
2022/04/23 07:53:29;;;;;;;7.00;3.47;;;;;;;15.88;79.24;94033.03;5019785;28;20195;-74
2022/04/23 07:55:57;;;;;;;8.67;3.40;;;;;;;15.87;79.31;94028.81;5018324;28;20203;-74
2022/04/23 07:58:25;;;;;;;10.20;3.77;;;;;;;15.81;79.10;94031.72;5017568;28;20193;-74
2022/04/23 08:00:56;;;;;;;7.63;3.70;;;;;;;15.81;80.10;94039.59;5019868;28;20581;-74
2022/04/23 08:03:23;;;;;;;5.67;3.83;;;;;;;15.84;79.51;94039.06;5020842;28;20199;-76
2022/04/23 08:05:50;;;;;;;10.47;3.90;;;;;;;15.84;80.11;94031.97;5021952;28;21661;-75
2022/04/23 08:08:19;;;;;;;4.97;3.50;;;;;;;15.82;80.31;94034.06;5020877;28;20219;-76
2022/04/23 08:10:47;;;;;;;4.50;3.40;;;;;;;15.90;80.83;94041.38;5019782;28;20257;-76
2022/04/23 08:13:14;;;;;;;8.90;3.80;;;;;;;15.93;80.60;94049.78;5021788;28;20391;-76
2022/04/23 08:15:41;;;;;;;7.60;3.70;;;;;;;15.90;80.19;94049.25;5018001;28;20202;-76
2022/04/23 08:18:10;;;;;;;5.17;3.27;;;;;;;15.81;78.15;94039.59;5020474;28;20202;-78
2022/04/23 08:20:38;;;;;;;9.93;3.37;;;;;;;15.96;78.21;94059.75;5019547;28;20273;-79
2022/04/23 08:23:05;;;;;;;7.30;3.00;;;;;;;16.01;77.90;94059.72;5019432;28;20204;-75
2022/04/23 08:25:32;;;;;;;9.57;2.80;;;;;;;15.96;76.07;94052.66;5018762;28;21616;-75
2022/04/23 08:30:34;;;;;;;9.17;3.27;;;;;;;15.82;77.08;94038.53;5023009;28;20218;-77
2022/04/23 08:30:46;;;;;;;4.53;2.73;;;;;;;15.99;76.74;94053.97;5019207;28;20199;-77
2022/04/23 08:33:14;;;;;;;4.90;2.20;;;;;;;16.15;74.83;94048.41;5019880;28;20191;-74
2022/04/23 08:35:41;;;;;;;6.60;2.90;;;;;;;16.00;74.75;94048.47;5023009;28;20202;-79
2022/04/23 08:38:09;;;;;;;8.83;3.40;;;;;;;16.06;73.96;94051.84;5024231;28;20209;-74
2022/04/23 08:40:40;;;;;;;7.57;3.00;;;;;;;15.87;74.23;94062.13;5024308;28;20276;-74
2022/04/23 08:43:07;;;;;;;5.70;2.27;;;;;;;15.90;73.13;94054.50;5023061;28;20199;-75
2022/04/23 08:45:36;;;;;;;4.80;2.70;;;;;;;15.88;73.68;94053.97;5026548;28;20202;-75
2022/04/23 08:48:11;;;;;;;5.20;2.10;;;;;;;15.91;72.33;94057.91;4999518;28;20219;-75
2022/04/23 08:50:41;;;;;;;5.77;2.37;;;;;;;15.98;71.52;94065.50;5021811;28;20209;-74
2022/04/23 08:53:14;;;;;;;7.23;3.83;;;;;;;16.13;71.55;94060.22;5021559;28;21138;-77
2022/04/23 08:55:45;;;;;;;4.93;2.40;;;;;;;16.07;71.11;94067.31;5024274;28;20285;-75
2022/04/23 08:58:13;;;;;;;3.67;2.23;;;;;;;15.92;71.53;94064.72;5024065;28;20195;-76
2022/04/23 09:00:40;;;;;;;5.57;2.47;;;;;;;15.73;71.71;94053.22;5022401;28;20226;-74
2022/04/23 09:03:07;;;;;;;5.00;2.50;;;;;;;15.73;72.55;94064.47;5020845;28;20215;-75
2022/04/23 09:05:36;;;;;;;4.93;2.73;;;;;;;15.73;72.58;94054.00;5022835;28;20709;-74
2022/04/23 09:08:07;;;;;;;8.23;2.73;;;;;;;15.82;72.36;94064.72;5018739;28;20223;-75
2022/04/23 09:10:44;;;;;;;4.30;2.10;;;;;;;15.99;72.71;94067.09;5021076;28;20766;-75
2022/04/23 09:13:11;;;;;;;5.03;1.83;;;;;;;16.22;71.79;94050.78;5023507;28;20203;-76
2022/04/23 09:24:11;;;;;;;4.67;1.97;;;;;;;16.23;69.84;94044.47;5021779;28;20310;-76
2022/04/23 09:26:41;;;;;;;4.50;1.97;;;;;;;16.19;70.27;94059.16;5021082;28;20199;-76
2022/04/23 09:29:18;;;;;;;4.60;2.20;;;;;;;16.17;70.53;94054.19;5026131;28;20226;-75
2022/04/23 09:31:45;;;;;;;5.73;2.57;;;;;;;16.06;71.17;94052.63;5021579;28;20198;-74
2022/04/23 09:34:16;;;;;;;7.17;3.40;;;;;;;16.05;71.21;94051.06;5022911;28;20195;-74
2022/04/23 09:36:54;;;;;;;6.63;2.70;;;;;;;16.13;71.63;94061.00;5022982;28;20207;-75
2022/04/23 09:39:34;;;;;;;5.23;2.90;;;;;;;16.28;71.43;94049.69;5022659;28;20198;-74
2022/04/23 09:42:16;;;;;;;6.37;3.00;;;;;;;16.36;70.67;94020.28;5016804;28;20202;-74
2022/04/23 09:44:43;;;;;;;12.33;3.57;;;;;;;16.56;70.71;94033.34;5020078;28;20205;-75
2022/04/23 09:47:11;;;;;;;9.07;3.70;;;;;;;16.68;70.70;94030.41;5020234;28;20235;-74
2022/04/23 09:49:40;;;;;;;5.40;3.63;;;;;;;16.85;69.19;94026.34;5020357;28;20574;-74
2022/04/23 09:52:09;;;;;;;10.23;3.23;;;;;;;16.94;68.33;94022.09;5016759;28;20226;-73
2022/04/23 09:54:38;;;;;;;8.10;3.10;;;;;;;17.09;68.46;94023.84;5018077;28;20196;-74
2022/04/23 09:57:06;;;;;;;4.17;2.80;;;;;;;17.08;68.46;94026.75;5014979;28;20677;-74
2022/04/23 09:59:33;;;;;;;4.37;2.90;;;;;;;17.29;69.38;94025.53;5016042;28;20191;-74
2022/04/23 10:02:31;;;;;;;3.57;2.17;;;;;;;17.66;67.90;94025.78;5015675;28;20632;-72
2022/04/23 10:05:17;;;;;;;6.17;2.20;;;;;;;18.03;66.23;94019.91;5014797;28;20294;-74
2022/04/23 10:07:49;;;;;;;7.10;2.50;;;;;;;18.55;65.17;94016.44;5018668;28;20195;-73
2022/04/23 10:10:18;;;;;;;5.37;2.07;;;;;;;18.77;64.78;94016.66;5016482;28;20199;-73
2022/04/23 10:12:46;;;;;;;6.00;2.50;;;;;;;18.85;62.83;94017.88;5018678;28;20194;-73
2022/04/23 10:15:15;;;;;;;5.82;2.28;;;;;;;18.83;62.48;94006.84;5018616;28;20743;-73
2022/04/23 10:17:43;;;;;;;6.78;2.33;;;;;;;19.07;62.02;94020.72;5019787;28;20230;-73
2022/04/23 10:20:13;;;;;;;7.97;2.80;;;;;;;19.05;61.67;94021.00;5014067;28;20325;-73
2022/04/23 10:22:55;;;;;;;5.68;2.85;;;;;;;19.26;60.96;94014.38;5016870;28;20321;-72
2022/04/23 10:25:36;;;;;;;10.30;3.20;;;;;;;19.59;60.42;94019.69;5017489;28;20515;-72
2022/04/23 10:28:04;;;;;;;9.95;3.30;;;;;;;19.83;59.78;94011.63;5018865;28;20203;-72
2022/04/23 10:30:45;;;;;;;5.13;2.88;;;;;;;20.21;59.38;94005.88;5014527;28;20861;-73
2022/04/23 10:33:30;;;;;;;5.00;2.58;;;;;;;20.75;58.60;94017.53;5014834;28;20202;-75
2022/04/23 10:36:10;;;;;;;11.55;3.80;;;;;;;21.14;57.36;94007.16;5018232;28;20197;-76
2022/04/23 10:38:42;;;;;;;8.52;2.90;;;;;;;21.36;57.67;94016.97;5019737;28;20283;-76
2022/04/23 10:41:12;;;;;;;7.78;2.92;;;;;;;21.19;56.66;94009.69;5020697;28;20635;-74
2022/04/23 10:43:49;;;;;;;10.82;2.95;;;;;;;21.03;57.20;94008.44;5020644;28;20209;-74
2022/04/23 10:46:45;;;;;;;8.00;2.85;;;;;;;20.59;56.78;94011.78;5019871;28;20559;-76
2022/04/23 10:49:16;;;;;;;11.50;3.10;;;;;;;20.22;57.27;94018.03;5021046;28;20223;-74
2022/04/23 10:51:47;;;;;;;8.70;3.20;;;;;;;20.08;56.84;94021.72;5026622;28;20206;-77
2022/04/23 10:54:16;;;;;;;8.80;3.30;;;;;;;19.83;58.39;94022.94;5022141;28;20243;-77
2022/04/23 10:56:49;;;;;;;8.25;2.97;;;;;;;19.78;58.89;94015.91;5023596;28;20205;-78
2022/04/23 10:59:36;;;;;;;7.72;2.80;;;;;;;19.84;59.48;94011.34;5022207;28;20203;-76
2022/04/23 11:02:06;;;;;;;12.02;3.10;;;;;;;19.91;59.95;94017.03;5022505;28;20206;-87
2022/04/23 11:04:34;;;;;;;9.27;2.83;;;;;;;19.94;59.39;94013.78;5026035;28;20222;-85
2022/04/23 11:12:37;;;;;;;14.60;2.90;;;;;;;20.76;56.57;94016.44;5022695;28;20214;-79
2022/04/23 11:15:15;;;;;;;6.20;2.42;;;;;;;21.28;54.49;94009.75;5016656;28;20546;-82
2022/04/23 11:17:53;;;;;;;7.20;2.97;;;;;;;21.82;53.72;94012.13;5022786;28;20195;-83
2022/04/23 11:20:36;;;;;;;6.20;2.40;;;;;;;22.25;51.92;94014.25;5026392;28;20284;-81
2022/04/23 11:23:06;;;;;;;7.68;2.20;;;;;;;22.57;51.72;94011.19;5024545;28;20191;-82
2022/04/23 11:25:33;;;;;;;6.00;2.45;;;;;;;22.90;50.73;94019.56;5025051;28;20582;-82
2022/04/23 11:28:23;;;;;;;6.88;2.70;;;;;;;22.95;50.42;94022.06;5022866;28;20207;-83
2022/04/23 11:30:50;;;;;;;6.80;2.63;;;;;;;22.93;49.77;94027.69;5026784;28;20237;-75
2022/04/23 11:33:17;;;;;;;10.45;2.58;;;;;;;23.13;48.79;94026.28;5025747;28;20199;-75
2022/04/23 11:35:43;;;;;;;10.05;2.30;;;;;;;23.27;49.11;94020.84;5024491;28;20195;-75
2022/04/23 11:38:26;;;;;;;6.45;2.47;;;;;;;23.32;50.30;94023.34;5027239;28;20241;-73
2022/04/23 11:40:53;;;;;;;5.25;1.90;;;;;;;22.91;49.72;94032.53;5025324;28;20243;-75
2022/04/23 11:43:37;;;;;;;7.50;2.83;;;;;;;22.16;51.50;94035.38;5024903;28;20693;-76
2022/04/23 11:46:06;;;;;;;11.10;2.47;;;;;;;21.84;53.05;94036.44;5017239;28;20203;-75
2022/04/23 11:48:44;;;;;;;12.73;2.50;;;;;;;21.32;54.32;94040.59;5024451;28;20226;-75
2022/04/23 11:51:12;;;;;;;7.18;2.08;;;;;;;20.81;58.00;94025.03;5024515;28;20285;-75
2022/04/23 11:54:00;;;;;;;7.95;2.38;;;;;;;20.93;59.41;94030.59;5020891;28;20239;-74
2022/04/23 11:56:30;;;;;;;6.70;2.70;;;;;;;20.76;59.63;94022.50;5024495;28;20195;-76
2022/04/23 11:59:00;;;;;;;6.45;2.20;;;;;;;20.72;60.16;94032.09;5026513;28;20281;-76
2022/04/23 12:01:27;;;;;;;4.93;1.73;;;;;;;21.09;58.38;94031.06;5022568;28;20195;-76
2022/04/23 12:03:56;;;;;;;5.18;1.95;;;;;;;21.56;56.23;94031.59;5021161;28;20203;-74
2022/04/23 12:06:23;;;;;;;3.10;1.65;;;;;;;22.03;54.63;94033.59;5021426;28;20194;-74